createdAt,value
2018-07-16T00:01:51.840Z,17.16
2018-07-16T00:04:24.704Z,17.19
2018-07-16T00:06:58.631Z,17.15
2018-07-16T00:09:32.789Z,17.24
2018-07-16T00:12:07.236Z,17.41
2018-07-16T00:14:41.427Z,17.47
2018-07-16T00:17:13.925Z,17.47
2018-07-16T00:19:47.190Z,17.53
2018-07-16T00:22:20.092Z,17.43
2018-07-16T00:24:52.641Z,17.24
2018-07-16T00:27:25.180Z,17.06
2018-07-16T00:29:57.986Z,16.90
2018-07-16T00:32:31.162Z,16.79
2018-07-16T00:35:04.669Z,16.64
2018-07-16T00:37:40.003Z,16.44
2018-07-16T00:40:13.988Z,16.29
2018-07-16T00:42:48.315Z,16.21
2018-07-16T00:45:21.514Z,16.07
2018-07-16T00:47:54.241Z,15.92
2018-07-16T00:50:29.690Z,15.79
2018-07-16T00:53:02.693Z,15.71
2018-07-16T00:55:35.874Z,15.63
2018-07-16T00:58:08.337Z,15.69
2018-07-16T01:00:42.314Z,15.59
2018-07-16T01:03:15.456Z,15.52
2018-07-16T01:05:47.871Z,15.41
2018-07-16T01:08:20.658Z,15.31
2018-07-16T01:10:53.907Z,15.26
2018-07-16T01:13:26.470Z,15.41
2018-07-16T01:15:59.471Z,15.41
2018-07-16T01:18:32.231Z,15.28
2018-07-16T01:21:05.077Z,15.27
2018-07-16T01:23:41.741Z,15.59
2018-07-16T01:26:17.137Z,16.05
2018-07-16T01:28:49.670Z,16.42
2018-07-16T01:31:22.280Z,16.67
2018-07-16T01:33:55.049Z,16.87
2018-07-16T01:36:27.602Z,16.97
2018-07-16T01:39:00.493Z,16.91
2018-07-16T01:41:33.478Z,16.75
2018-07-16T01:44:05.876Z,16.65
2018-07-16T01:46:38.325Z,16.51
2018-07-16T01:49:11.197Z,16.43
2018-07-16T01:51:43.715Z,16.38
2018-07-16T01:54:16.389Z,16.14
2018-07-16T01:56:52.227Z,15.85
2018-07-16T01:59:25.720Z,15.62
2018-07-16T02:01:59.796Z,15.52
2018-07-16T02:04:32.778Z,15.71
2018-07-16T02:07:05.334Z,15.86
2018-07-16T02:09:37.932Z,16.24
2018-07-16T02:12:14.009Z,16.43
2018-07-16T02:14:48.532Z,16.61
2018-07-16T02:17:21.515Z,16.68
2018-07-16T02:19:57.037Z,16.67
2018-07-16T02:22:29.624Z,16.50
2018-07-16T02:25:02.479Z,16.29
2018-07-16T02:27:36.409Z,16.06
2018-07-16T02:30:08.932Z,15.80
2018-07-16T02:32:41.358Z,15.53
2018-07-16T02:35:14.303Z,15.28
2018-07-16T02:37:46.983Z,15.03
2018-07-16T02:40:19.696Z,14.88
2018-07-16T02:42:53.561Z,14.80
2018-07-16T02:45:27.216Z,14.75
2018-07-16T02:47:59.948Z,14.54
2018-07-16T02:50:34.016Z,14.49
2018-07-16T02:53:07.187Z,14.62
2018-07-16T02:55:39.609Z,14.93
2018-07-16T02:58:14.588Z,15.02
2018-07-16T03:00:47.169Z,14.97
2018-07-16T03:03:20.127Z,14.96
2018-07-16T03:05:52.948Z,15.05
2018-07-16T03:08:25.545Z,15.16
2018-07-16T03:10:59.591Z,15.08
2018-07-16T03:13:38.392Z,14.84
2018-07-16T03:16:11.050Z,14.53
2018-07-16T03:18:44.433Z,14.40
2018-07-16T03:21:17.234Z,14.43
2018-07-16T03:23:49.797Z,14.58
2018-07-16T03:26:22.324Z,14.72
2018-07-16T03:28:55.428Z,14.70
2018-07-16T03:31:29.349Z,14.78
2018-07-16T03:34:01.781Z,15.01
2018-07-16T03:36:34.722Z,15.10
2018-07-16T03:39:09.576Z,15.10
2018-07-16T03:41:42.416Z,15.07
2018-07-16T03:44:15.168Z,14.94
2018-07-16T03:46:47.724Z,14.71
2018-07-16T03:49:20.308Z,14.46
2018-07-16T03:51:52.976Z,14.20
2018-07-16T03:54:26.462Z,14.03
2018-07-16T03:56:58.845Z,13.94
2018-07-16T03:59:32.608Z,13.96
2018-07-16T04:02:06.275Z,13.88
2018-07-16T04:04:39.977Z,13.99
2018-07-16T04:07:12.846Z,14.21
2018-07-16T04:09:46.351Z,14.46
2018-07-16T04:12:18.816Z,14.47
2018-07-16T04:14:53.436Z,14.29
2018-07-16T04:17:25.911Z,14.05
2018-07-16T04:19:58.621Z,13.88
2018-07-16T04:22:31.506Z,13.83
2018-07-16T04:25:04.324Z,13.87
2018-07-16T04:27:36.629Z,14.02
2018-07-16T04:30:14.705Z,13.98
2018-07-16T04:32:47.175Z,13.89
2018-07-16T04:35:21.124Z,13.89
2018-07-16T04:37:54.424Z,13.92
2018-07-16T04:40:26.846Z,13.95
2018-07-16T04:43:01.011Z,13.97
2018-07-16T04:45:34.048Z,14.01
2018-07-16T04:48:08.672Z,14.05
2018-07-16T04:50:46.166Z,14.08
2018-07-16T04:53:19.080Z,14.14
2018-07-16T04:55:53.052Z,14.20
2018-07-16T04:58:25.918Z,14.23
2018-07-16T05:01:03.680Z,14.34
2018-07-16T05:03:36.152Z,14.47
2018-07-16T05:06:08.734Z,14.61
2018-07-16T05:08:42.529Z,14.72
2018-07-16T05:11:15.086Z,14.82
2018-07-16T05:13:47.799Z,14.92
2018-07-16T05:16:21.241Z,14.98
2018-07-16T05:18:54.858Z,15.07
2018-07-16T05:21:27.208Z,15.17
2018-07-16T05:24:01.379Z,15.26
2018-07-16T05:26:34.094Z,15.41
2018-07-16T05:29:06.546Z,15.69
2018-07-16T05:31:40.454Z,15.87
2018-07-16T05:34:12.972Z,16.06
2018-07-16T05:36:45.387Z,16.17
2018-07-16T05:39:18.164Z,16.30
2018-07-16T05:41:50.980Z,16.54
2018-07-16T05:44:23.832Z,16.70
2018-07-16T05:46:56.677Z,16.80
2018-07-16T05:49:29.752Z,16.90
2018-07-16T05:52:02.207Z,17.04
2018-07-16T05:54:35.049Z,17.18
2018-07-16T05:57:07.757Z,17.38
2018-07-16T05:59:40.333Z,17.62
2018-07-16T06:02:14.397Z,17.84
2018-07-16T06:04:47.879Z,18.06
2018-07-16T06:07:20.411Z,18.26
2018-07-16T06:09:53.335Z,18.40
2018-07-16T06:12:25.966Z,18.55
2018-07-16T06:14:58.519Z,18.65
2018-07-16T06:17:31.264Z,18.68
2018-07-16T06:20:09.372Z,18.76
2018-07-16T06:22:41.981Z,18.90
2018-07-16T06:25:15.922Z,19.01
2018-07-16T06:27:49.283Z,19.14
2018-07-16T06:30:22.070Z,19.25
2018-07-16T06:32:56.526Z,19.41
2018-07-16T06:35:28.996Z,19.50
2018-07-16T06:38:01.385Z,19.64
2018-07-16T06:40:34.119Z,19.72
2018-07-16T06:43:06.709Z,19.82
2018-07-16T06:45:39.545Z,19.89
2018-07-16T06:48:13.113Z,20.01
2018-07-16T06:50:45.526Z,20.17
2018-07-16T06:53:18.380Z,20.22
2018-07-16T06:55:53.296Z,20.48
2018-07-16T06:58:26.355Z,20.56
2018-07-16T07:00:58.929Z,20.80
2018-07-16T07:03:31.873Z,20.82
2018-07-16T07:06:05.477Z,20.91
2018-07-16T07:08:38.322Z,21.09
2018-07-16T07:11:12.359Z,21.14
2018-07-16T07:13:46.291Z,21.31
2018-07-16T07:16:22.102Z,21.44
2018-07-16T07:18:54.466Z,21.51
2018-07-16T07:21:27.428Z,21.42
2018-07-16T07:24:00.521Z,21.43
2018-07-16T07:26:34.598Z,21.58
2018-07-16T07:29:09.568Z,21.95
2018-07-16T07:31:45.683Z,21.93
2018-07-16T07:34:21.014Z,22.05
2018-07-16T07:37:03.246Z,22.21
2018-07-16T07:39:35.856Z,22.19
2018-07-16T07:42:09.966Z,22.38
2018-07-16T07:44:44.598Z,22.41
2018-07-16T07:47:17.301Z,22.50
2018-07-16T07:49:51.893Z,22.70
2018-07-16T07:52:25.377Z,23.02
2018-07-16T07:54:57.989Z,23.83
2018-07-16T07:57:30.937Z,24.84
2018-07-16T08:00:11.229Z,25.31
2018-07-16T08:02:48.840Z,26.33
2018-07-16T08:05:29.853Z,27.07
2018-07-16T08:08:07.079Z,27.46
2018-07-16T08:10:42.767Z,27.14
2018-07-16T08:13:19.439Z,27.49
2018-07-16T08:15:53.220Z,28.56
2018-07-16T08:18:35.681Z,28.73
2018-07-16T08:21:19.672Z,28.88
2018-07-16T08:24:04.773Z,28.47
2018-07-16T08:26:38.588Z,27.64
2018-07-16T08:29:14.754Z,27.98
2018-07-16T08:31:48.404Z,28.77
2018-07-16T08:34:25.704Z,29.47
2018-07-16T08:37:03.446Z,30.00
2018-07-16T08:39:36.514Z,29.31
2018-07-16T08:42:09.505Z,29.94
2018-07-16T08:44:46.312Z,29.54
2018-07-16T08:47:19.304Z,29.68
2018-07-16T08:49:56.637Z,29.95
2018-07-16T08:52:30.412Z,29.72
2018-07-16T08:55:04.118Z,29.65
2018-07-16T08:57:40.226Z,30.00
2018-07-16T09:00:15.221Z,30.55
2018-07-16T09:02:53.621Z,29.89
2018-07-16T09:05:30.336Z,30.18
2018-07-16T09:08:05.101Z,29.83
2018-07-16T09:10:43.525Z,30.58
2018-07-16T09:13:21.046Z,30.48
2018-07-16T09:15:54.685Z,30.75
2018-07-16T09:18:34.011Z,31.37
2018-07-16T09:21:12.584Z,31.52
2018-07-16T09:23:50.752Z,31.59
2018-07-16T09:26:34.248Z,31.61
2018-07-16T09:29:08.326Z,31.78
2018-07-16T09:31:42.478Z,31.99
2018-07-16T09:34:17.417Z,32.01
2018-07-16T09:36:53.479Z,32.29
2018-07-16T09:39:27.328Z,31.92
2018-07-16T09:42:01.109Z,31.13
2018-07-16T09:44:36.073Z,31.70
2018-07-16T09:47:13.080Z,32.01
2018-07-16T09:49:46.722Z,30.64
2018-07-16T09:52:19.373Z,30.24
2018-07-16T09:54:52.912Z,31.27
2018-07-16T09:57:27.259Z,31.61
2018-07-16T10:00:00.129Z,31.69
2018-07-16T10:02:36.334Z,32.02
2018-07-16T10:05:10.047Z,32.06
2018-07-16T10:07:42.593Z,31.23
2018-07-16T10:10:17.028Z,31.36
2018-07-16T10:12:50.119Z,31.93
2018-07-16T10:15:24.802Z,32.75
2018-07-16T10:17:57.973Z,32.93
2018-07-16T10:20:30.605Z,32.24
2018-07-16T10:23:13.230Z,32.68
2018-07-16T10:25:45.952Z,32.65
2018-07-16T10:28:25.207Z,33.25
2018-07-16T10:30:57.707Z,33.55
2018-07-16T10:33:31.369Z,33.93
2018-07-16T10:36:04.495Z,33.70
2018-07-16T10:38:40.002Z,33.34
2018-07-16T10:41:13.800Z,33.24
2018-07-16T10:43:47.207Z,32.98
2018-07-16T10:46:19.928Z,32.91
2018-07-16T10:48:52.488Z,32.98
2018-07-16T10:51:25.848Z,32.51
2018-07-16T10:53:59.769Z,32.27
2018-07-16T10:56:32.350Z,32.60
2018-07-16T10:59:08.533Z,33.18
2018-07-16T11:01:41.337Z,33.60
2018-07-16T11:04:20.373Z,33.74
2018-07-16T11:06:54.268Z,33.84
2018-07-16T11:09:29.119Z,33.90
2018-07-16T11:12:05.010Z,33.48
2018-07-16T11:14:39.260Z,33.48
2018-07-16T11:17:12.349Z,33.55
2018-07-16T11:19:49.101Z,33.55
2018-07-16T11:22:22.884Z,33.93
2018-07-16T11:24:58.627Z,33.45
2018-07-16T11:27:33.830Z,33.52
2018-07-16T11:30:10.167Z,34.12
2018-07-16T11:32:53.529Z,34.44
2018-07-16T11:35:26.307Z,34.80
2018-07-16T11:37:59.164Z,35.26
2018-07-16T11:40:36.967Z,35.40
2018-07-16T11:43:11.502Z,35.54
2018-07-16T11:45:47.338Z,35.47
2018-07-16T11:48:29.560Z,35.74
2018-07-16T11:51:07.846Z,36.00
2018-07-16T11:53:44.875Z,36.21
2018-07-16T11:56:19.660Z,36.16
2018-07-16T11:58:53.035Z,35.63
2018-07-16T12:01:26.744Z,35.15
2018-07-16T12:03:59.984Z,34.40
2018-07-16T12:06:32.575Z,33.77
2018-07-16T12:09:07.091Z,32.94
2018-07-16T12:11:39.716Z,33.02
2018-07-16T12:14:12.477Z,32.50
2018-07-16T12:16:46.645Z,32.02
2018-07-16T12:19:19.244Z,31.64
2018-07-16T12:21:56.428Z,31.28
2018-07-16T12:24:29.290Z,31.60
2018-07-16T12:27:05.757Z,31.83
2018-07-16T12:29:41.089Z,32.06
2018-07-16T12:32:18.333Z,32.85
2018-07-16T12:34:57.195Z,33.64
2018-07-16T12:37:32.624Z,34.43
2018-07-16T12:40:24.892Z,34.84
2018-07-16T12:43:06.185Z,34.94
2018-07-16T12:45:39.822Z,35.54
2018-07-16T12:48:13.246Z,35.71
2018-07-16T12:50:50.870Z,35.44
2018-07-16T12:53:24.781Z,33.62
2018-07-16T12:55:59.172Z,33.77
2018-07-16T12:58:35.325Z,33.76
2018-07-16T13:01:09.378Z,33.93
2018-07-16T13:03:45.053Z,34.34
2018-07-16T13:06:24.124Z,34.45
2018-07-16T13:08:58.549Z,35.31
2018-07-16T13:11:32.245Z,35.70
2018-07-16T13:14:04.724Z,35.64
2018-07-16T13:16:40.444Z,35.29
2018-07-16T13:19:14.837Z,34.90
2018-07-16T13:21:50.894Z,34.41
2018-07-16T13:24:25.318Z,34.60
2018-07-16T13:26:58.880Z,34.37
2018-07-16T13:29:32.246Z,33.49
2018-07-16T13:32:06.725Z,32.95
2018-07-16T13:34:40.068Z,32.50
2018-07-16T13:37:15.745Z,32.04
2018-07-16T13:39:49.825Z,31.63
2018-07-16T13:42:28.346Z,31.83
2018-07-16T13:45:04.001Z,31.99
2018-07-16T13:47:38.965Z,32.10
2018-07-16T13:50:11.998Z,32.29
2018-07-16T13:52:45.433Z,32.46
2018-07-16T13:55:18.229Z,32.87
2018-07-16T13:57:52.072Z,33.34
2018-07-16T14:00:25.444Z,33.61
2018-07-16T14:02:58.588Z,33.55
2018-07-16T14:05:32.484Z,33.43
2018-07-16T14:08:05.301Z,33.73
2018-07-16T14:10:39.485Z,33.57
2018-07-16T14:13:12.073Z,34.37
2018-07-16T14:15:45.445Z,34.90
2018-07-16T14:18:20.041Z,35.00
2018-07-16T14:20:53.844Z,35.51
2018-07-16T14:23:28.735Z,35.70
2018-07-16T14:26:01.352Z,35.51
2018-07-16T14:28:35.497Z,35.38
2018-07-16T14:31:09.355Z,35.36
2018-07-16T14:33:43.001Z,35.59
2018-07-16T14:36:18.791Z,35.80
2018-07-16T14:38:53.269Z,35.46
2018-07-16T14:41:26.869Z,35.44
2018-07-16T14:43:59.913Z,35.36
2018-07-16T14:46:34.095Z,35.12
2018-07-16T14:49:17.525Z,35.07
2018-07-16T14:51:51.897Z,35.59
2018-07-16T14:54:26.249Z,35.94
2018-07-16T14:56:58.831Z,36.37
2018-07-16T14:59:33.479Z,37.06
2018-07-16T15:02:09.229Z,37.18
2018-07-16T15:04:43.825Z,36.82
2018-07-16T15:07:18.449Z,35.87
2018-07-16T15:09:51.316Z,35.43
2018-07-16T15:12:25.089Z,35.67
2018-07-16T15:14:59.994Z,35.84
2018-07-16T15:17:38.794Z,35.48
2018-07-16T15:20:12.577Z,35.09
2018-07-16T15:22:46.825Z,34.73
2018-07-16T15:25:20.487Z,34.73
2018-07-16T15:27:56.341Z,34.52
2018-07-16T15:30:30.233Z,34.19
2018-07-16T15:33:05.125Z,33.79
2018-07-16T15:35:39.098Z,34.43
2018-07-16T15:38:18.589Z,34.46
2018-07-16T15:40:52.285Z,33.97
2018-07-16T15:43:26.098Z,33.85
2018-07-16T15:45:59.068Z,33.81
2018-07-16T15:48:33.887Z,33.69
2018-07-16T15:51:09.597Z,33.63
2018-07-16T15:53:42.404Z,33.65
2018-07-16T15:56:14.965Z,33.38
2018-07-16T15:58:48.012Z,33.67
2018-07-16T16:01:21.601Z,33.90
2018-07-16T16:03:57.061Z,33.89
2018-07-16T16:06:30.960Z,33.69
2018-07-16T16:09:05.900Z,33.73
2018-07-16T16:11:38.493Z,33.95
2018-07-16T16:14:11.612Z,33.93
2018-07-16T16:16:46.012Z,33.84
2018-07-16T16:19:21.585Z,34.37
2018-07-16T16:21:55.219Z,34.61
2018-07-16T16:24:29.509Z,34.50
2018-07-16T16:27:07.281Z,34.20
2018-07-16T16:29:42.512Z,34.31
2018-07-16T16:32:16.392Z,33.95
2018-07-16T16:34:54.118Z,33.82
2018-07-16T16:37:47.178Z,33.83
2018-07-16T16:40:21.721Z,33.68
2018-07-16T16:42:55.525Z,33.42
2018-07-16T16:45:36.035Z,33.30
2018-07-16T16:48:09.707Z,33.53
2018-07-16T16:50:47.751Z,33.97
2018-07-16T16:53:21.392Z,34.23
2018-07-16T16:55:55.422Z,33.99
2018-07-16T16:58:34.214Z,34.09
2018-07-16T17:01:08.695Z,34.57
2018-07-16T17:03:44.300Z,35.00
2018-07-16T17:06:21.739Z,34.89
2018-07-16T17:08:54.341Z,34.53
2018-07-16T17:11:28.629Z,33.93
2018-07-16T17:14:05.542Z,33.62
2018-07-16T17:16:38.503Z,33.28
2018-07-16T17:19:12.744Z,33.09
2018-07-16T17:21:48.380Z,33.01
2018-07-16T17:24:22.604Z,32.96
2018-07-16T17:26:57.072Z,33.10
2018-07-16T17:29:38.967Z,32.99
2018-07-16T17:32:11.388Z,32.60
2018-07-16T17:34:44.714Z,32.56
2018-07-16T17:37:18.516Z,32.45
2018-07-16T17:40:02.062Z,32.37
2018-07-16T17:42:40.389Z,32.33
2018-07-16T17:45:21.027Z,32.37
2018-07-16T17:47:59.174Z,32.43
2018-07-16T17:50:59.286Z,32.48
2018-07-16T17:53:57.741Z,32.35
2018-07-16T17:56:36.200Z,32.27
2018-07-16T17:59:19.804Z,32.25
2018-07-16T18:02:04.689Z,32.19
2018-07-16T18:04:48.025Z,32.28
2018-07-16T18:07:31.547Z,32.22
2018-07-16T18:10:11.728Z,32.20
2018-07-16T18:12:49.824Z,31.99
2018-07-16T18:15:24.615Z,31.76
2018-07-16T18:18:06.033Z,31.41
2018-07-16T18:20:46.652Z,31.11
2018-07-16T18:23:26.804Z,30.95
2018-07-16T18:26:02.566Z,30.72
2018-07-16T18:28:40.500Z,30.44
2018-07-16T18:31:19.131Z,30.23
2018-07-16T18:33:54.741Z,30.01
2018-07-16T18:36:35.865Z,29.82
2018-07-16T18:39:13.370Z,29.61
2018-07-16T18:41:49.832Z,29.41
2018-07-16T18:44:24.298Z,29.19
2018-07-16T18:47:05.060Z,28.97
2018-07-16T18:49:40.244Z,28.81
2018-07-16T18:52:22.424Z,28.69
2018-07-16T18:55:04.639Z,28.47
2018-07-16T18:57:44.153Z,28.29
2018-07-16T19:00:18.491Z,28.12
2018-07-16T19:02:52.052Z,27.98
2018-07-16T19:05:27.315Z,27.84
2018-07-16T19:08:00.015Z,27.72
2018-07-16T19:10:36.801Z,27.58
2018-07-16T19:13:15.510Z,27.45
2018-07-16T19:15:54.827Z,27.30
2018-07-16T19:18:49.006Z,27.03
2018-07-16T19:21:22.936Z,26.76
2018-07-16T19:24:00.523Z,26.57
2018-07-16T19:26:35.522Z,26.44
2018-07-16T19:29:09.924Z,26.30
2018-07-16T19:31:45.833Z,26.15
2018-07-16T19:34:21.915Z,25.96
2018-07-16T19:36:56.818Z,25.73
2018-07-16T19:39:31.863Z,25.43
2018-07-16T19:42:06.764Z,25.14
2018-07-16T19:44:44.124Z,24.77
2018-07-16T19:47:17.696Z,24.39
2018-07-16T19:49:53.407Z,24.04
2018-07-16T19:52:28.343Z,23.77
2018-07-16T19:55:01.539Z,23.57
2018-07-16T19:57:36.152Z,23.40
2018-07-16T20:00:14.470Z,23.18
2018-07-16T20:02:49.120Z,22.93
2018-07-16T20:05:23.446Z,22.76
2018-07-16T20:08:03.155Z,22.53
2018-07-16T20:10:40.595Z,22.29
2018-07-16T20:13:17.276Z,22.04
2018-07-16T20:15:51.228Z,21.88
2018-07-16T20:18:25.315Z,21.71
2018-07-16T20:21:00.887Z,21.56
2018-07-16T20:23:35.544Z,21.47
2018-07-16T20:26:09.523Z,21.36
2018-07-16T20:28:44.828Z,21.28
2018-07-16T20:31:20.856Z,21.11
2018-07-16T20:33:55.788Z,20.95
2018-07-16T20:36:31.019Z,20.93
2018-07-16T20:39:10.088Z,20.87
2018-07-16T20:41:44.214Z,20.68
2018-07-16T20:44:20.525Z,20.53
2018-07-16T20:47:00.597Z,20.31
2018-07-16T20:49:40.823Z,20.09
2018-07-16T20:52:13.963Z,19.96
2018-07-16T20:54:47.800Z,19.74
2018-07-16T20:57:21.829Z,19.54
2018-07-16T20:59:57.846Z,19.53
2018-07-16T21:02:39.130Z,19.42
2018-07-16T21:05:20.588Z,19.28
2018-07-16T21:08:44.932Z,19.15
2018-07-16T21:11:33.749Z,18.98
2018-07-16T21:14:14.063Z,18.91
2018-07-16T21:17:16.036Z,18.86
2018-07-16T21:19:56.940Z,18.80
2018-07-16T21:22:43.034Z,18.73
2018-07-16T21:25:23.184Z,18.70
2018-07-16T21:28:16.081Z,18.55
2018-07-16T21:31:18.645Z,18.39
2018-07-16T21:34:14.105Z,18.21
2018-07-16T21:36:50.166Z,18.12
2018-07-16T21:39:54.602Z,18.11
2018-07-16T21:42:36.651Z,18.07
2018-07-16T21:45:28.927Z,18.19
2018-07-16T21:48:18.410Z,18.12
2018-07-16T21:51:04.606Z,18.05
2018-07-16T21:53:47.133Z,17.84
2018-07-16T21:56:31.985Z,17.68
2018-07-16T21:59:14.421Z,17.58
2018-07-16T22:01:49.556Z,17.54
2018-07-16T22:04:26.442Z,17.41
2018-07-16T22:07:05.861Z,17.28
2018-07-16T22:09:50.885Z,17.18
2018-07-16T22:12:47.777Z,17.10
2018-07-16T22:15:27.248Z,17.06
2018-07-16T22:18:09.189Z,17.10
2018-07-16T22:21:03.430Z,17.19
2018-07-16T22:23:53.652Z,17.21
2018-07-16T22:26:35.464Z,17.21
2018-07-16T22:29:15.489Z,17.41
2018-07-16T22:31:52.901Z,17.35
2018-07-16T22:34:37.417Z,17.15
2018-07-16T22:37:16.473Z,17.04
2018-07-16T22:39:51.758Z,17.07
2018-07-16T22:42:26.423Z,16.93
2018-07-16T22:45:05.015Z,16.78
2018-07-16T22:47:38.661Z,16.65
2018-07-16T22:50:13.236Z,16.58
2018-07-16T22:52:49.299Z,16.51
2018-07-16T22:55:26.845Z,16.44
2018-07-16T22:58:01.021Z,16.38
2018-07-16T23:00:35.364Z,16.33
2018-07-16T23:03:08.945Z,16.31
2018-07-16T23:05:44.078Z,16.26
2018-07-16T23:08:19.004Z,16.13
2018-07-16T23:10:56.590Z,16.04
2018-07-16T23:13:33.403Z,15.95
2018-07-16T23:16:07.938Z,15.91
2018-07-16T23:18:42.393Z,15.93
2018-07-16T23:21:15.428Z,16.08
2018-07-16T23:23:48.029Z,16.07
2018-07-16T23:26:20.838Z,16.04
2018-07-16T23:28:56.248Z,16.01
2018-07-16T23:31:30.474Z,15.90
2018-07-16T23:34:04.350Z,15.76
2018-07-16T23:36:37.684Z,15.68
2018-07-16T23:39:13.253Z,15.64
2018-07-16T23:41:47.129Z,15.63
2018-07-16T23:44:21.069Z,15.57
2018-07-16T23:46:54.614Z,15.61
2018-07-16T23:49:28.518Z,15.86
2018-07-16T23:52:04.851Z,15.84
2018-07-16T23:54:37.696Z,15.70
2018-07-16T23:57:12.724Z,15.57
2018-07-16T23:59:53.977Z,15.58
